Maersk Douglas — DCPL2 — position and weather

sailwx.info

Track history (hours):
 
Tides and Currents Weather Stations Pressure Air Temp Water Temp Dewpoint Dewpoint Depression Visibility Wind Speed Wind Dir Waves Ship Positions

Maersk Douglas

Last reported at 2017-Jan-17 10:34 UTC. Time now 2017-Jan-17 10:55 UTC.
Position N 53°43' E 009°27'.

Length 294.1 m; beam 32.2 m; draft 13.7 m.

Type: Tug. MMSI: 211710650.

Date/timePositionNaut miles runAvg speedWind from/ knotsBaromVisibWave heightAir tempDewpointWater temp
2017-Jan-17 10:34N 53°43' E 009°27'0 0.1
2017-Jan-17 09:34N 53°43' E 009°27'1 0.7
2017-Jan-17 08:33N 53°44' E 009°27'0 0.1
2017-Jan-17 07:33N 53°44' E 009°27'0 0.1
2017-Jan-17 06:34N 53°44' E 009°27'8 7.7
2017-Jan-17 05:34N 53°37' E 009°33'1110.6
2017-Jan-17 04:34N 53°33' E 009°49'4 3.5
2017-Jan-17 03:34N 53°33' E 009°55'0 0.0
2017-Jan-17 02:34N 53°33' E 009°55'0 0.0
2017-Jan-17 01:34N 53°33' E 009°55'0 0.0
2017-Jan-17 00:34N 53°33' E 009°55'0 0.0
2017-Jan-16 23:34N 53°33' E 009°55'0 0.0
2017-Jan-16 22:34N 53°33' E 009°55'0 0.0
2017-Jan-16 21:33N 53°33' E 009°55'0 0.0
2017-Jan-16 20:34N 53°33' E 009°55'0 0.0
2017-Jan-16 19:34N 53°33' E 009°55'0 0.0
2017-Jan-16 18:33N 53°33' E 009°55'0 0.0
2017-Jan-16 17:34N 53°33' E 009°55'0 0.0
2017-Jan-16 16:34N 53°33' E 009°55'1 0.8
2017-Jan-16 15:34N 53°32' E 009°55'1 0.8
2017-Jan-16 14:34N 53°33' E 009°55'0 0.0
2017-Jan-16 13:33N 53°33' E 009°55'0 0.0
2017-Jan-16 12:34N 53°33' E 009°55'0 0.0
2017-Jan-16 11:34N 53°33' E 009°55'0 0.0
2017-Jan-16 10:34N 53°33' E 009°55'0 0.0
2017-Jan-16 09:34N 53°33' E 009°55'0 0.0
2017-Jan-16 08:34N 53°33' E 009°55'0 0.0
2017-Jan-16 07:34N 53°33' E 009°55'0 0.0
2017-Jan-16 06:34N 53°33' E 009°55'0 0.0
2017-Jan-16 05:33N 53°33' E 009°55'0 0.0
2017-Jan-16 04:33N 53°33' E 009°55'0 0.0
2017-Jan-16 03:33N 53°33' E 009°55'0 0.0
2017-Jan-16 02:34N 53°33' E 009°55'0 0.0
2017-Jan-16 01:33N 53°33' E 009°55'0 0.0
2017-Jan-16 00:33N 53°33' E 009°55'0 0.0
2017-Jan-15 23:33N 53°33' E 009°55'0 0.0
2017-Jan-15 22:33N 53°33' E 009°55'0 0.0
2017-Jan-15 21:33N 53°33' E 009°55'0 0.0
2017-Jan-15 20:34N 53°33' E 009°55'0 0.0
2017-Jan-15 19:33N 53°33' E 009°55'0 0.0
2017-Jan-15 18:34N 53°33' E 009°55'0 0.0
2017-Jan-15 17:34N 53°33' E 009°55'0 0.0
2017-Jan-15 16:33N 53°33' E 009°55'0 0.0
2017-Jan-15 15:34N 53°33' E 009°55'0 0.0
2017-Jan-15 14:34N 53°33' E 009°55'0 0.0
2017-Jan-15 13:34N 53°33' E 009°55'0 0.0
2017-Jan-15 12:33N 53°33' E 009°55'0 0.0
2017-Jan-15 11:33N 53°33' E 009°55'0 0.0
2017-Jan-15 10:33N 53°33' E 009°55'0 0.0
2017-Jan-15 09:34N 53°33' E 009°55'0 0.0
2017-Jan-15 08:34N 53°33' E 009°55'0 0.0
2017-Jan-15 07:34N 53°33' E 009°55'0 0.0
2017-Jan-15 06:34N 53°33' E 009°55'1 0.8
2017-Jan-15 05:33N 53°32' E 009°55'2 2.0
2017-Jan-15 04:34N 53°33' E 009°52'2 1.9
2017-Jan-15 03:33N 53°33' E 009°55'0 0.0
2017-Jan-15 02:34N 53°33' E 009°55'0 0.0
2017-Jan-15 01:34N 53°33' E 009°55'0 0.0
2017-Jan-15 00:34N 53°33' E 009°55'0 0.0
2017-Jan-14 23:34N 53°33' E 009°55'0 0.0
2017-Jan-14 22:33N 53°33' E 009°55'0 0.0
2017-Jan-14 21:34N 53°33' E 009°55'0 0.0
2017-Jan-14 20:33N 53°33' E 009°55'1 0.8
2017-Jan-14 19:34N 53°32' E 009°55'1 0.7
2017-Jan-14 18:33N 53°33' E 009°55'0 0.3
2017-Jan-14 17:33N 53°33' E 009°55'0 0.0
2017-Jan-14 16:34N 53°33' E 009°55'0 0.0
2017-Jan-14 15:33N 53°33' E 009°55'0 0.0
2017-Jan-14 14:34N 53°33' E 009°55'0 0.0
2017-Jan-14 13:34N 53°33' E 009°55'0 0.0
2017-Jan-14 12:34N 53°33' E 009°55'0 0.0
2017-Jan-14 11:34N 53°33' E 009°55'0 0.0
2017-Jan-14 10:34N 53°33' E 009°55'0 0.0
2017-Jan-14 09:34N 53°33' E 009°55'0 0.0
2017-Jan-14 08:33N 53°33' E 009°55'0 0.0
2017-Jan-14 07:34N 53°33' E 009°55'0 0.0
2017-Jan-14 06:33N 53°33' E 009°55'0 0.0
2017-Jan-14 05:34N 53°33' E 009°55'0 0.0
2017-Jan-14 04:34N 53°33' E 009°55'0 0.0
2017-Jan-14 03:34N 53°33' E 009°55'0 0.0
2017-Jan-13 23:34N 53°33' E 009°55'0 0.0
2017-Jan-13 22:33N 53°33' E 009°55'0 0.0
2017-Jan-13 21:34N 53°33' E 009°55'0 0.0
2017-Jan-13 20:34N 53°33' E 009°55'0 0.0
2017-Jan-13 19:33N 53°33' E 009°55'0 0.0
2017-Jan-13 18:33N 53°33' E 009°55'0 0.0
2017-Jan-13 17:34N 53°33' E 009°55'0 0.0
2017-Jan-13 16:33N 53°33' E 009°55'0 0.0
2017-Jan-13 15:34N 53°33' E 009°55'0 0.0
2017-Jan-13 14:33N 53°33' E 009°55'2 1.9
2017-Jan-13 13:34N 53°31' E 009°57'3 2.5
2017-Jan-13 12:33N 53°32' E 009°54'1 0.9
2017-Jan-13 11:34N 53°33' E 009°55'0 0.0
2017-Jan-13 10:33N 53°33' E 009°55'0 0.0
2017-Jan-13 09:34N 53°33' E 009°55'0 0.0
2017-Jan-13 08:33N 53°33' E 009°55'0 0.0
2017-Jan-13 07:33N 53°33' E 009°55'1 0.9
2017-Jan-13 06:33N 53°32' E 009°54'0 0.4
2017-Jan-13 05:34N 53°32' E 009°55'2 2.3
2017-Jan-13 04:34N 53°33' E 009°51'3 2.7
2017-Jan-13 03:34N 53°33' E 009°55'0 0.0
2017-Jan-13 02:34N 53°33' E 009°55'0 0.0
2017-Jan-13 01:34N 53°33' E 009°55'0 0.0
2017-Jan-13 00:33N 53°33' E 009°55'0 0.0
2017-Jan-12 23:33N 53°33' E 009°55'0 0.0
2017-Jan-12 22:34N 53°33' E 009°55'2 1.7
2017-Jan-12 21:34N 53°31' E 009°56'1 0.8
2017-Jan-12 20:34N 53°30' E 009°56'3 3.3
2017-Jan-12 19:33N 53°33' E 009°52'1 1.0
2017-Jan-12 18:34N 53°33' E 009°51'4 3.6
2017-Jan-12 17:34N 53°31' E 009°56'2 1.8
2017-Jan-12 16:34N 53°33' E 009°55'0 0.0
2017-Jan-12 15:34N 53°33' E 009°55'0 0.0
2017-Jan-12 14:34N 53°33' E 009°55'4 3.8
2017-Jan-12 13:33N 53°29' E 009°58'3 3.4
2017-Jan-12 12:33N 53°32' E 009°56'0 0.4
2017-Jan-12 11:33N 53°33' E 009°55'0 0.0
2017-Jan-12 10:33N 53°33' E 009°55'0 0.0
2017-Jan-12 09:33N 53°33' E 009°55'0 0.0
2017-Jan-12 08:33N 53°33' E 009°55'0 0.0
2017-Jan-12 07:33N 53°33' E 009°55'0 0.0
2017-Jan-12 06:34N 53°33' E 009°55'0 0.0
2017-Jan-12 05:34N 53°33' E 009°55'0 0.0
2017-Jan-12 04:33N 53°33' E 009°55'0 0.0
2017-Jan-12 03:34N 53°33' E 009°55'0 0.0
2017-Jan-12 02:34N 53°33' E 009°55'0 0.0
2017-Jan-12 01:34N 53°33' E 009°55'0 0.0
2017-Jan-12 00:34N 53°33' E 009°55'0 0.0
2017-Jan-11 23:34N 53°33' E 009°55'0 0.0
2017-Jan-11 22:34N 53°33' E 009°55'0 0.0
2017-Jan-11 21:34N 53°33' E 009°55'0 0.0
2017-Jan-11 20:33N 53°33' E 009°55'0 0.0
2017-Jan-11 19:34N 53°33' E 009°55'0 0.0
2017-Jan-11 18:34N 53°33' E 009°55'0 0.0
2017-Jan-11 17:34N 53°33' E 009°55'0 0.0
2017-Jan-11 16:34N 53°33' E 009°55'0 0.0
2017-Jan-11 15:34N 53°33' E 009°55'0 0.0
2017-Jan-11 14:34N 53°33' E 009°55'0 0.0
2017-Jan-11 13:34N 53°33' E 009°55'0 0.0
2017-Jan-11 12:34N 53°33' E 009°55'0 0.0
2017-Jan-11 11:33N 53°33' E 009°55'0 0.0
2017-Jan-11 10:34N 53°33' E 009°55'0 0.0
2017-Jan-11 09:34N 53°33' E 009°55'0 0.0
2017-Jan-11 08:34N 53°33' E 009°55'0 0.0
2017-Jan-11 07:33N 53°33' E 009°55'0 0.0
2017-Jan-11 06:33N 53°33' E 009°55'0 0.0
2017-Jan-11 05:33N 53°33' E 009°55'0 0.0
2017-Jan-11 04:34N 53°33' E 009°55'0 0.0
2017-Jan-11 03:33N 53°33' E 009°55'0 0.0
2017-Jan-11 02:34N 53°33' E 009°55'0 0.0
2017-Jan-11 01:33N 53°33' E 009°55'0 0.0
2017-Jan-11 00:34N 53°33' E 009°55'0 0.0
2017-Jan-10 23:34N 53°33' E 009°55'0 0.0
2017-Jan-10 22:34N 53°33' E 009°55'0 0.0
2017-Jan-10 21:34N 53°33' E 009°55'0 0.0
2017-Jan-10 20:34N 53°33' E 009°55'0 0.0
2017-Jan-10 19:33N 53°33' E 009°55'0 0.0
2017-Jan-10 18:33N 53°33' E 009°55'0 0.0
2017-Jan-10 17:34N 53°33' E 009°55'0 0.0
2017-Jan-10 16:33N 53°33' E 009°55'0 0.0
2017-Jan-10 15:33N 53°33' E 009°55'0 0.3
2017-Jan-10 14:34N 53°32' E 009°55'1 0.8
2017-Jan-10 13:33N 53°32' E 009°56'0 0.1
2017-Jan-10 12:34N 53°32' E 009°56'1 0.7
2017-Jan-10 11:34N 53°33' E 009°55'0 0.1
2017-Jan-10 10:33N 53°33' E 009°55'0 0.0
2017-Jan-10 09:34N 53°33' E 009°55'0 0.0
2017-Jan-10 08:33N 53°33' E 009°55'0 0.0
2017-Jan-10 07:34N 53°33' E 009°55'0 0.0
2017-Jan-10 06:34N 53°33' E 009°55'0 0.0
2017-Jan-10 05:34N 53°33' E 009°55'0 0.0
2017-Jan-10 04:33N 53°33' E 009°55'0 0.0
2017-Jan-10 03:34N 53°33' E 009°55'2 2.5
2017-Jan-10 02:34N 53°33' E 009°51'9 8.6
2017-Jan-10 01:34N 53°35' E 009°37'6 5.8
2017-Jan-10 00:33N 53°39' E 009°31'0 0.1
2017-Jan-09 23:33N 53°39' E 009°31'1 0.9
2017-Jan-09 22:33N 53°39' E 009°32'9 9.2
2017-Jan-09 21:34N 53°34' E 009°45'6 6.4
2017-Jan-09 20:34N 53°33' E 009°55'0 0.0
2017-Jan-09 19:34N 53°33' E 009°55'0 0.5
2017-Jan-09 18:34N 53°32' E 009°56'3 2.8
2017-Jan-09 17:34N 53°30' E 009°59'1 0.9
2017-Jan-09 16:34N 53°30' E 009°57'3 2.6
2017-Jan-09 15:33N 53°32' E 009°54'1 0.6
2017-Jan-09 14:34N 53°33' E 009°55'0 0.0
2017-Jan-09 13:34N 53°33' E 009°55'3 3.0
2017-Jan-09 12:34N 53°30' E 009°58'0 0.3
2017-Jan-09 11:34N 53°30' E 009°59'3 3.2
2017-Jan-09 10:34N 53°33' E 009°55'0 0.0
2017-Jan-09 09:33N 53°33' E 009°55'0 0.0
2017-Jan-09 08:34N 53°33' E 009°55'0 0.0
2017-Jan-09 07:34N 53°33' E 009°55'0 0.0
2017-Jan-09 06:33N 53°33' E 009°55'0 0.0
2017-Jan-09 05:34N 53°33' E 009°55'0 0.0
2017-Jan-09 04:34N 53°33' E 009°55'0 0.0
2017-Jan-09 03:33N 53°33' E 009°55'0 0.0
2017-Jan-09 02:34N 53°33' E 009°55'0 0.0
2017-Jan-09 01:34N 53°33' E 009°55'0 0.0
2017-Jan-09 00:34N 53°33' E 009°55'0 0.0
2017-Jan-08 23:34N 53°33' E 009°55'0 0.0
2017-Jan-08 22:34N 53°33' E 009°55'0 0.0
2017-Jan-08 21:34N 53°33' E 009°55'0 0.0
2017-Jan-08 20:33N 53°33' E 009°55'0 0.0
2017-Jan-08 19:33N 53°33' E 009°55'1 0.6
2017-Jan-08 18:33N 53°32' E 009°54'2 2.5
2017-Jan-08 17:34N 53°33' E 009°50'3 3.0
2017-Jan-08 16:34N 53°33' E 009°55'0 0.0
2017-Jan-08 15:34N 53°33' E 009°55'0 0.0
2017-Jan-08 14:34N 53°33' E 009°55'0 0.0
2017-Jan-08 13:34N 53°33' E 009°55'0 0.0
2017-Jan-08 12:34N 53°33' E 009°55'0 0.0
2017-Jan-08 11:33N 53°33' E 009°55'0 0.0
2017-Jan-08 10:34N 53°33' E 009°55'0 0.0
2017-Jan-08 09:34N 53°33' E 009°55'0 0.0
2017-Jan-08 08:33N 53°33' E 009°55'0 0.0
2017-Jan-08 07:33N 53°33' E 009°55'0 0.0
2017-Jan-08 06:34N 53°33' E 009°55'0 0.0
2017-Jan-08 05:34N 53°33' E 009°55'0 0.1
2017-Jan-08 04:34N 53°32' E 009°55'1 0.7
2017-Jan-08 03:34N 53°32' E 009°54'1 0.8
2017-Jan-08 02:34N 53°33' E 009°55'0 0.0
2017-Jan-08 01:34N 53°33' E 009°55'0 0.0
2017-Jan-08 00:34N 53°33' E 009°55'0 0.0
2017-Jan-07 23:34N 53°33' E 009°55'0 0.0
2017-Jan-07 22:34N 53°33' E 009°55'0 0.0
2017-Jan-07 21:34N 53°33' E 009°55'0 0.0
2017-Jan-07 20:34N 53°33' E 009°55'0 0.0
2017-Jan-07 19:34N 53°33' E 009°55'0 0.0
2017-Jan-07 18:33N 53°33' E 009°55'0 0.0
2017-Jan-07 17:34N 53°33' E 009°55'0 0.0
2017-Jan-07 16:34N 53°33' E 009°55'0 0.0
2017-Jan-07 15:34N 53°33' E 009°55'0 0.0
2017-Jan-07 14:34N 53°33' E 009°55'0 0.0
2017-Jan-07 13:34N 53°33' E 009°55'0 0.0
2017-Jan-07 12:34N 53°33' E 009°55'0 0.0
2017-Jan-07 11:34N 53°33' E 009°55'0 0.0
2017-Jan-07 10:34N 53°33' E 009°55'  
Track history (hours):
 
Tides and Currents Weather Stations Pressure Air Temp Water Temp Dewpoint Dewpoint Depression Visibility Wind Speed Wind Dir Waves Ship Positions

Maersk Douglas

Last reported at 2017-Jan-17 10:34 UTC. Time now 2017-Jan-17 10:55 UTC.
Position N 53°43' E 009°27'.

Length 294.1 m; beam 32.2 m; draft 13.7 m.

Type: Tug. MMSI: 211710650.

Date/timePositionNaut miles runAvg speedWind from/ knotsBaromVisibWave heightAir tempDewpointWater temp
2017-Jan-17 10:34N 53°43' E 009°27'0 0.1
2017-Jan-17 09:34N 53°43' E 009°27'1 0.7
2017-Jan-17 08:33N 53°44' E 009°27'0 0.1
2017-Jan-17 07:33N 53°44' E 009°27'0 0.1
2017-Jan-17 06:34N 53°44' E 009°27'8 7.7
2017-Jan-17 05:34N 53°37' E 009°33'1110.6
2017-Jan-17 04:34N 53°33' E 009°49'4 3.5
2017-Jan-17 03:34N 53°33' E 009°55'0 0.0
2017-Jan-17 02:34N 53°33' E 009°55'0 0.0
2017-Jan-17 01:34N 53°33' E 009°55'0 0.0
2017-Jan-17 00:34N 53°33' E 009°55'0 0.0
2017-Jan-16 23:34N 53°33' E 009°55'0 0.0
2017-Jan-16 22:34N 53°33' E 009°55'0 0.0
2017-Jan-16 21:33N 53°33' E 009°55'0 0.0
2017-Jan-16 20:34N 53°33' E 009°55'0 0.0
2017-Jan-16 19:34N 53°33' E 009°55'0 0.0
2017-Jan-16 18:33N 53°33' E 009°55'0 0.0
2017-Jan-16 17:34N 53°33' E 009°55'0 0.0
2017-Jan-16 16:34N 53°33' E 009°55'1 0.8
2017-Jan-16 15:34N 53°32' E 009°55'1 0.8
2017-Jan-16 14:34N 53°33' E 009°55'0 0.0
2017-Jan-16 13:33N 53°33' E 009°55'0 0.0
2017-Jan-16 12:34N 53°33' E 009°55'0 0.0
2017-Jan-16 11:34N 53°33' E 009°55'0 0.0
2017-Jan-16 10:34N 53°33' E 009°55'0 0.0
2017-Jan-16 09:34N 53°33' E 009°55'0 0.0
2017-Jan-16 08:34N 53°33' E 009°55'0 0.0
2017-Jan-16 07:34N 53°33' E 009°55'0 0.0
2017-Jan-16 06:34N 53°33' E 009°55'0 0.0
2017-Jan-16 05:33N 53°33' E 009°55'0 0.0
2017-Jan-16 04:33N 53°33' E 009°55'0 0.0
2017-Jan-16 03:33N 53°33' E 009°55'0 0.0
2017-Jan-16 02:34N 53°33' E 009°55'0 0.0
2017-Jan-16 01:33N 53°33' E 009°55'0 0.0
2017-Jan-16 00:33N 53°33' E 009°55'0 0.0
2017-Jan-15 23:33N 53°33' E 009°55'0 0.0
2017-Jan-15 22:33N 53°33' E 009°55'0 0.0
2017-Jan-15 21:33N 53°33' E 009°55'0 0.0
2017-Jan-15 20:34N 53°33' E 009°55'0 0.0
2017-Jan-15 19:33N 53°33' E 009°55'0 0.0
2017-Jan-15 18:34N 53°33' E 009°55'0 0.0
2017-Jan-15 17:34N 53°33' E 009°55'0 0.0
2017-Jan-15 16:33N 53°33' E 009°55'0 0.0
2017-Jan-15 15:34N 53°33' E 009°55'0 0.0
2017-Jan-15 14:34N 53°33' E 009°55'0 0.0
2017-Jan-15 13:34N 53°33' E 009°55'0 0.0
2017-Jan-15 12:33N 53°33' E 009°55'0 0.0
2017-Jan-15 11:33N 53°33' E 009°55'0 0.0
2017-Jan-15 10:33N 53°33' E 009°55'0 0.0
2017-Jan-15 09:34N 53°33' E 009°55'0 0.0
2017-Jan-15 08:34N 53°33' E 009°55'0 0.0
2017-Jan-15 07:34N 53°33' E 009°55'0 0.0
2017-Jan-15 06:34N 53°33' E 009°55'1 0.8
2017-Jan-15 05:33N 53°32' E 009°55'2 2.0
2017-Jan-15 04:34N 53°33' E 009°52'2 1.9
2017-Jan-15 03:33N 53°33' E 009°55'0 0.0
2017-Jan-15 02:34N 53°33' E 009°55'0 0.0
2017-Jan-15 01:34N 53°33' E 009°55'0 0.0
2017-Jan-15 00:34N 53°33' E 009°55'0 0.0
2017-Jan-14 23:34N 53°33' E 009°55'0 0.0
2017-Jan-14 22:33N 53°33' E 009°55'0 0.0
2017-Jan-14 21:34N 53°33' E 009°55'0 0.0
2017-Jan-14 20:33N 53°33' E 009°55'1 0.8
2017-Jan-14 19:34N 53°32' E 009°55'1 0.7
2017-Jan-14 18:33N 53°33' E 009°55'0 0.3
2017-Jan-14 17:33N 53°33' E 009°55'0 0.0
2017-Jan-14 16:34N 53°33' E 009°55'0 0.0
2017-Jan-14 15:33N 53°33' E 009°55'0 0.0
2017-Jan-14 14:34N 53°33' E 009°55'0 0.0
2017-Jan-14 13:34N 53°33' E 009°55'0 0.0
2017-Jan-14 12:34N 53°33' E 009°55'0 0.0
2017-Jan-14 11:34N 53°33' E 009°55'0 0.0
2017-Jan-14 10:34N 53°33' E 009°55'0 0.0
2017-Jan-14 09:34N 53°33' E 009°55'0 0.0
2017-Jan-14 08:33N 53°33' E 009°55'0 0.0
2017-Jan-14 07:34N 53°33' E 009°55'0 0.0
2017-Jan-14 06:33N 53°33' E 009°55'0 0.0
2017-Jan-14 05:34N 53°33' E 009°55'0 0.0
2017-Jan-14 04:34N 53°33' E 009°55'0 0.0
2017-Jan-14 03:34N 53°33' E 009°55'0 0.0
2017-Jan-13 23:34N 53°33' E 009°55'0 0.0
2017-Jan-13 22:33N 53°33' E 009°55'0 0.0
2017-Jan-13 21:34N 53°33' E 009°55'0 0.0
2017-Jan-13 20:34N 53°33' E 009°55'0 0.0
2017-Jan-13 19:33N 53°33' E 009°55'0 0.0
2017-Jan-13 18:33N 53°33' E 009°55'0 0.0
2017-Jan-13 17:34N 53°33' E 009°55'0 0.0
2017-Jan-13 16:33N 53°33' E 009°55'0 0.0
2017-Jan-13 15:34N 53°33' E 009°55'0 0.0
2017-Jan-13 14:33N 53°33' E 009°55'2 1.9
2017-Jan-13 13:34N 53°31' E 009°57'3 2.5
2017-Jan-13 12:33N 53°32' E 009°54'1 0.9
2017-Jan-13 11:34N 53°33' E 009°55'0 0.0
2017-Jan-13 10:33N 53°33' E 009°55'0 0.0
2017-Jan-13 09:34N 53°33' E 009°55'0 0.0
2017-Jan-13 08:33N 53°33' E 009°55'0 0.0
2017-Jan-13 07:33N 53°33' E 009°55'1 0.9
2017-Jan-13 06:33N 53°32' E 009°54'0 0.4
2017-Jan-13 05:34N 53°32' E 009°55'2 2.3
2017-Jan-13 04:34N 53°33' E 009°51'3 2.7
2017-Jan-13 03:34N 53°33' E 009°55'0 0.0
2017-Jan-13 02:34N 53°33' E 009°55'0 0.0
2017-Jan-13 01:34N 53°33' E 009°55'0 0.0
2017-Jan-13 00:33N 53°33' E 009°55'0 0.0
2017-Jan-12 23:33N 53°33' E 009°55'0 0.0
2017-Jan-12 22:34N 53°33' E 009°55'2 1.7
2017-Jan-12 21:34N 53°31' E 009°56'1 0.8
2017-Jan-12 20:34N 53°30' E 009°56'3 3.3
2017-Jan-12 19:33N 53°33' E 009°52'1 1.0
2017-Jan-12 18:34N 53°33' E 009°51'4 3.6
2017-Jan-12 17:34N 53°31' E 009°56'2 1.8
2017-Jan-12 16:34N 53°33' E 009°55'0 0.0
2017-Jan-12 15:34N 53°33' E 009°55'0 0.0
2017-Jan-12 14:34N 53°33' E 009°55'4 3.8
2017-Jan-12 13:33N 53°29' E 009°58'3 3.4
2017-Jan-12 12:33N 53°32' E 009°56'0 0.4
2017-Jan-12 11:33N 53°33' E 009°55'0 0.0
2017-Jan-12 10:33N 53°33' E 009°55'0 0.0
2017-Jan-12 09:33N 53°33' E 009°55'0 0.0
2017-Jan-12 08:33N 53°33' E 009°55'0 0.0
2017-Jan-12 07:33N 53°33' E 009°55'0 0.0
2017-Jan-12 06:34N 53°33' E 009°55'0 0.0
2017-Jan-12 05:34N 53°33' E 009°55'0 0.0
2017-Jan-12 04:33N 53°33' E 009°55'0 0.0
2017-Jan-12 03:34N 53°33' E 009°55'0 0.0
2017-Jan-12 02:34N 53°33' E 009°55'0 0.0
2017-Jan-12 01:34N 53°33' E 009°55'0 0.0
2017-Jan-12 00:34N 53°33' E 009°55'0 0.0
2017-Jan-11 23:34N 53°33' E 009°55'0 0.0
2017-Jan-11 22:34N 53°33' E 009°55'0 0.0
2017-Jan-11 21:34N 53°33' E 009°55'0 0.0
2017-Jan-11 20:33N 53°33' E 009°55'0 0.0
2017-Jan-11 19:34N 53°33' E 009°55'0 0.0
2017-Jan-11 18:34N 53°33' E 009°55'0 0.0
2017-Jan-11 17:34N 53°33' E 009°55'0 0.0
2017-Jan-11 16:34N 53°33' E 009°55'0 0.0
2017-Jan-11 15:34N 53°33' E 009°55'0 0.0
2017-Jan-11 14:34N 53°33' E 009°55'0 0.0
2017-Jan-11 13:34N 53°33' E 009°55'0 0.0
2017-Jan-11 12:34N 53°33' E 009°55'0 0.0
2017-Jan-11 11:33N 53°33' E 009°55'0 0.0
2017-Jan-11 10:34N 53°33' E 009°55'0 0.0
2017-Jan-11 09:34N 53°33' E 009°55'0 0.0
2017-Jan-11 08:34N 53°33' E 009°55'0 0.0
2017-Jan-11 07:33N 53°33' E 009°55'0 0.0
2017-Jan-11 06:33N 53°33' E 009°55'0 0.0
2017-Jan-11 05:33N 53°33' E 009°55'0 0.0
2017-Jan-11 04:34N 53°33' E 009°55'0 0.0
2017-Jan-11 03:33N 53°33' E 009°55'0 0.0
2017-Jan-11 02:34N 53°33' E 009°55'0 0.0
2017-Jan-11 01:33N 53°33' E 009°55'0 0.0
2017-Jan-11 00:34N 53°33' E 009°55'0 0.0
2017-Jan-10 23:34N 53°33' E 009°55'0 0.0
2017-Jan-10 22:34N 53°33' E 009°55'0 0.0
2017-Jan-10 21:34N 53°33' E 009°55'0 0.0
2017-Jan-10 20:34N 53°33' E 009°55'0 0.0
2017-Jan-10 19:33N 53°33' E 009°55'0 0.0
2017-Jan-10 18:33N 53°33' E 009°55'0 0.0
2017-Jan-10 17:34N 53°33' E 009°55'0 0.0
2017-Jan-10 16:33N 53°33' E 009°55'0 0.0
2017-Jan-10 15:33N 53°33' E 009°55'0 0.3
2017-Jan-10 14:34N 53°32' E 009°55'1 0.8
2017-Jan-10 13:33N 53°32' E 009°56'0 0.1
2017-Jan-10 12:34N 53°32' E 009°56'1 0.7
2017-Jan-10 11:34N 53°33' E 009°55'0 0.1
2017-Jan-10 10:33N 53°33' E 009°55'0 0.0
2017-Jan-10 09:34N 53°33' E 009°55'0 0.0
2017-Jan-10 08:33N 53°33' E 009°55'0 0.0
2017-Jan-10 07:34N 53°33' E 009°55'0 0.0
2017-Jan-10 06:34N 53°33' E 009°55'0 0.0
2017-Jan-10 05:34N 53°33' E 009°55'0 0.0
2017-Jan-10 04:33N 53°33' E 009°55'0 0.0
2017-Jan-10 03:34N 53°33' E 009°55'2 2.5
2017-Jan-10 02:34N 53°33' E 009°51'9 8.6
2017-Jan-10 01:34N 53°35' E 009°37'6 5.8
2017-Jan-10 00:33N 53°39' E 009°31'0 0.1
2017-Jan-09 23:33N 53°39' E 009°31'1 0.9
2017-Jan-09 22:33N 53°39' E 009°32'9 9.2
2017-Jan-09 21:34N 53°34' E 009°45'6 6.4
2017-Jan-09 20:34N 53°33' E 009°55'0 0.0
2017-Jan-09 19:34N 53°33' E 009°55'0 0.5
2017-Jan-09 18:34N 53°32' E 009°56'3 2.8
2017-Jan-09 17:34N 53°30' E 009°59'1 0.9
2017-Jan-09 16:34N 53°30' E 009°57'3 2.6
2017-Jan-09 15:33N 53°32' E 009°54'1 0.6
2017-Jan-09 14:34N 53°33' E 009°55'0 0.0
2017-Jan-09 13:34N 53°33' E 009°55'3 3.0
2017-Jan-09 12:34N 53°30' E 009°58'0 0.3
2017-Jan-09 11:34N 53°30' E 009°59'3 3.2
2017-Jan-09 10:34N 53°33' E 009°55'0 0.0
2017-Jan-09 09:33N 53°33' E 009°55'0 0.0
2017-Jan-09 08:34N 53°33' E 009°55'0 0.0
2017-Jan-09 07:34N 53°33' E 009°55'0 0.0
2017-Jan-09 06:33N 53°33' E 009°55'0 0.0
2017-Jan-09 05:34N 53°33' E 009°55'0 0.0
2017-Jan-09 04:34N 53°33' E 009°55'0 0.0
2017-Jan-09 03:33N 53°33' E 009°55'0 0.0
2017-Jan-09 02:34N 53°33' E 009°55'0 0.0
2017-Jan-09 01:34N 53°33' E 009°55'0 0.0
2017-Jan-09 00:34N 53°33' E 009°55'0 0.0
2017-Jan-08 23:34N 53°33' E 009°55'0 0.0
2017-Jan-08 22:34N 53°33' E 009°55'0 0.0
2017-Jan-08 21:34N 53°33' E 009°55'0 0.0
2017-Jan-08 20:33N 53°33' E 009°55'0 0.0
2017-Jan-08 19:33N 53°33' E 009°55'1 0.6
2017-Jan-08 18:33N 53°32' E 009°54'2 2.5
2017-Jan-08 17:34N 53°33' E 009°50'3 3.0
2017-Jan-08 16:34N 53°33' E 009°55'0 0.0
2017-Jan-08 15:34N 53°33' E 009°55'0 0.0
2017-Jan-08 14:34N 53°33' E 009°55'0 0.0
2017-Jan-08 13:34N 53°33' E 009°55'0 0.0
2017-Jan-08 12:34N 53°33' E 009°55'0 0.0
2017-Jan-08 11:33N 53°33' E 009°55'0 0.0
2017-Jan-08 10:34N 53°33' E 009°55'0 0.0
2017-Jan-08 09:34N 53°33' E 009°55'0 0.0
2017-Jan-08 08:33N 53°33' E 009°55'0 0.0
2017-Jan-08 07:33N 53°33' E 009°55'0 0.0
2017-Jan-08 06:34N 53°33' E 009°55'0 0.0
2017-Jan-08 05:34N 53°33' E 009°55'0 0.1
2017-Jan-08 04:34N 53°32' E 009°55'1 0.7
2017-Jan-08 03:34N 53°32' E 009°54'1 0.8
2017-Jan-08 02:34N 53°33' E 009°55'0 0.0
2017-Jan-08 01:34N 53°33' E 009°55'0 0.0
2017-Jan-08 00:34N 53°33' E 009°55'0 0.0
2017-Jan-07 23:34N 53°33' E 009°55'0 0.0
2017-Jan-07 22:34N 53°33' E 009°55'0 0.0
2017-Jan-07 21:34N 53°33' E 009°55'0 0.0
2017-Jan-07 20:34N 53°33' E 009°55'0 0.0
2017-Jan-07 19:34N 53°33' E 009°55'0 0.0
2017-Jan-07 18:33N 53°33' E 009°55'0 0.0
2017-Jan-07 17:34N 53°33' E 009°55'0 0.0
2017-Jan-07 16:34N 53°33' E 009°55'0 0.0
2017-Jan-07 15:34N 53°33' E 009°55'0 0.0
2017-Jan-07 14:34N 53°33' E 009°55'0 0.0
2017-Jan-07 13:34N 53°33' E 009°55'0 0.0
2017-Jan-07 12:34N 53°33' E 009°55'0 0.0
2017-Jan-07 11:34N 53°33' E 009°55'0 0.0
2017-Jan-07 10:34N 53°33' E 009°55'  

Dump ship's entire track history